This is the latest recevied weather packets stored in our database for station/object YN1ZGS-13. If no packets are shown the sender has not sent any weather packets the latest 10 day(s).
| Time | Temp. | Humidity | Pressure | Rain* | Wind** | Luminosity | Snow |
|---|---|---|---|---|---|---|---|
| 1777666745 | 34.44° C | 46% | 1006 hPa | 0 mm | - | - | - |
| 1777666145 | 33.33° C | 44% | 1006 hPa | 0 mm | - | - | - |
| 1777665545 | 33.33° C | 44% | 1006 hPa | 0 mm | - | - | - |
| 1777664944 | 33.89° C | 44% | 1006 hPa | 0 mm | - | - | - |
| 1777664344 | 33.33° C | 44% | 1006 hPa | 0 mm | - | - | - |
| 1777663744 | 33.89° C | 44% | 1007 hPa | 0 mm | - | - | - |
| 1777663143 | 34.44° C | 44% | 1007 hPa | 0 mm | - | - | - |
| 1777662543 | 33.33° C | 46% | 1007 hPa | 0 mm | - | - | - |
| 1777661943 | 33.33° C | 46% | 1007 hPa | 0 mm | - | - | - |
| 1777661342 | 33.33° C | 46% | 1008 hPa | 0 mm | - | - | - |
| 1777660742 | 33.33° C | 46% | 1008 hPa | 0 mm | - | - | - |
| 1777660142 | 32.22° C | 47% | 1009 hPa | 0 mm | - | - | - |
| 1777659542 | 32.22° C | 47% | 1009 hPa | 0 mm | - | - | - |
| 1777658941 | 32.22° C | 47% | 1009 hPa | 0 mm | - | - | - |
| 1777658341 | 31.67° C | 47% | 1009 hPa | 0 mm | - | - | - |
| 1777657741 | 32.22° C | 47% | 1009 hPa | 0 mm | - | - | - |
| 1777657140 | 31.67° C | 48% | 1010 hPa | 0 mm | - | - | - |
| 1777656540 | 31.67° C | 48% | 1010 hPa | 0 mm | - | - | - |
| 1777655940 | 30.56° C | 51% | 1010 hPa | 0 mm | - | - | - |
| 1777655339 | 30.56° C | 51% | 1010 hPa | 0 mm | - | - | - |
| 1777654739 | 31.11° C | 51% | 1010 hPa | 0 mm | - | - | - |
| 1777654139 | 31.67° C | 52% | 1010 hPa | 0 mm | - | - | - |
| 1777653539 | 31.67° C | 52% | 1010 hPa | 0 mm | - | - | - |
| 1777652938 | 32.22° C | 52% | 1011 hPa | 0 mm | - | - | - |
| 1777652338 | 28.89° C | 62% | 1011 hPa | 0 mm | - | - | - |
* Rain latest hour (hover to see other rain measurements)
** Current wind speed in m/s (hover to see current wind gust speed)